Time;durP1;ratioP1;P1;durP2;ratioP2;P2;SDS_P1;SDS_P2;PMS_P1;PMS_P2;Temp;Humidity;BMP_temperature;BMP_pressure;BME280_temperature;BME280_humidity;BME280_pressure;Samples;Min_cycle;Max_cycle;Signal;HPM_P1;HPM_P2
2022/10/07 00:01:06;;;;;;;7.63;5.60;;;7.70;99.90;;;7.83;88.49;99200.69;5021960;28;20465;-80
2022/10/07 00:03:52;;;;;;;7.53;5.17;;;7.70;99.90;;;7.83;88.78;99206.06;5021358;28;21148;-81
2022/10/07 00:06:38;;;;;;;6.50;5.80;;;7.60;99.90;;;7.69;89.01;99171.78;5024167;28;20459;-80
2022/10/07 00:09:23;;;;;;;8.87;5.70;;;7.60;99.90;;;7.88;88.68;99202.84;5023691;28;20478;-81
2022/10/07 00:12:11;;;;;;;5.70;4.67;;;7.60;99.90;;;7.86;88.13;99199.50;5018782;28;20558;-80
2022/10/07 00:14:57;;;;;;;9.23;6.23;;;7.60;99.90;;;7.77;88.39;99194.13;5017828;28;20452;-80
2022/10/07 00:17:44;;;;;;;9.30;6.00;;;7.60;99.90;;;7.85;88.60;99198.66;5023220;28;20493;-80
2022/10/07 00:20:29;;;;;;;33.60;19.00;;;7.60;99.90;;;7.96;87.97;99199.31;5023703;28;20485;-80
2022/10/07 00:23:15;;;;;;;12.83;9.47;;;7.70;99.90;;;7.97;87.49;99193.78;5027533;28;20454;-80
2022/10/07 00:26:02;;;;;;;29.87;18.00;;;7.70;99.90;;;7.80;87.93;99191.09;5021237;28;20460;-82
2022/10/07 00:28:50;;;;;;;11.03;7.13;;;7.70;99.90;;;7.89;88.02;99189.25;5021324;28;20463;-81
2022/10/07 00:31:38;;;;;;;10.23;6.97;;;7.70;99.90;;;7.91;87.79;99181.84;5018153;28;20489;-81
2022/10/07 00:34:24;;;;;;;9.20;5.53;;;7.70;99.90;;;7.80;87.53;99168.72;5021203;28;21185;-80
2022/10/07 00:37:11;;;;;;;6.83;5.70;;;7.70;99.90;;;7.80;87.93;99176.78;5019374;28;20465;-81
2022/10/07 00:39:57;;;;;;;6.60;5.27;;;7.60;99.90;;;7.84;87.31;99175.47;5028948;28;20528;-83
2022/10/07 00:42:42;;;;;;;6.17;5.47;;;7.50;99.90;;;7.78;87.62;99165.38;5022030;28;20447;-83
2022/10/07 00:45:39;;;;;;;6.73;4.93;;;7.60;99.90;;;7.85;87.52;99173.59;5022418;28;21202;-83
2022/10/07 00:48:29;;;;;;;5.93;4.90;;;7.60;99.90;;;7.76;87.71;99172.75;5025839;28;20935;-81
2022/10/07 00:51:16;;;;;;;6.57;5.20;;;7.50;99.90;;;7.65;88.20;99155.94;5025617;28;20465;-82
2022/10/07 00:54:05;;;;;;;7.37;5.20;;;7.50;99.90;;;7.68;88.30;99159.34;5024156;28;20925;-82
2022/10/07 00:56:52;;;;;;;5.83;5.27;;;7.50;99.90;;;7.67;88.03;99160.34;5020515;28;20548;-83
2022/10/07 00:59:40;;;;;;;5.93;5.27;;;7.50;99.90;;;7.41;88.93;99155.97;5026457;28;20544;-82
2022/10/07 01:02:28;;;;;;;7.60;5.50;;;7.30;99.90;;;7.43;89.50;99162.00;5042194;28;20440;-81
2022/10/07 01:05:14;;;;;;;7.07;5.50;;;7.20;99.90;;;7.35;89.95;99149.41;5050267;28;20485;-80
2022/10/07 01:08:00;;;;;;;6.63;5.13;;;7.10;99.90;;;7.35;89.51;99154.78;5050135;28;20533;-79
2022/10/07 01:10:56;;;;;;;5.90;5.40;;;7.10;99.90;;;7.33;89.88;99141.50;5042283;28;20462;-83
2022/10/07 01:13:54;;;;;;;6.33;5.30;;;7.10;99.90;;;7.41;89.26;99124.53;5023226;28;20547;-82
2022/10/07 01:16:48;;;;;;;6.47;5.37;;;7.20;99.90;;;7.67;88.61;99147.72;5026660;28;20462;-83
2022/10/07 01:20:11;;;;;;;9.13;4.93;;;7.40;99.90;;;7.46;89.05;99134.78;5030350;28;20462;-81
2022/10/07 01:23:18;;;;;;;8.33;5.10;;;7.30;99.90;;;7.44;89.56;99136.81;5028947;28;20462;-81
2022/10/07 01:26:48;;;;;;;8.67;5.43;;;7.20;99.90;;;7.42;89.56;99138.81;5028793;28;20466;-80
2022/10/07 01:29:39;;;;;;;8.30;5.53;;;7.10;99.90;;;7.35;89.62;99118.00;5022044;28;20801;-80
2022/10/07 01:32:31;;;;;;;9.87;4.53;;;7.20;99.90;;;7.55;88.99;99131.09;5023707;28;20797;-82
2022/10/07 01:35:21;;;;;;;6.67;5.13;;;7.30;99.90;;;7.64;88.39;99127.38;5026836;28;20446;-83
2022/10/07 01:38:09;;;;;;;9.93;5.80;;;7.40;99.90;;;7.66;88.90;99116.44;5015371;28;20483;-81
2022/10/07 01:41:03;;;;;;;7.53;6.20;;;7.50;99.90;;;7.63;88.66;99120.31;5027372;28;20468;-81
2022/10/07 01:43:54;;;;;;;7.03;6.27;;;7.50;99.90;;;7.70;88.45;99106.19;5029611;28;20455;-83
2022/10/07 01:46:39;;;;;;;7.60;5.97;;;7.60;99.90;;;7.71;88.60;99105.19;5036212;28;20511;-80
2022/10/07 01:49:28;;;;;;;8.30;5.90;;;7.70;99.90;;;7.62;88.03;99072.91;5028504;28;20448;-80
2022/10/07 01:52:42;;;;;;;6.27;5.70;;;7.70;99.90;;;7.70;87.72;99090.06;5018873;28;20457;-80
2022/10/07 01:55:46;;;;;;;6.27;5.60;;;7.70;99.90;;;7.59;88.24;99081.31;5029898;28;20454;-82
2022/10/07 01:58:58;;;;;;;9.63;5.90;;;7.60;99.90;;;7.47;87.87;99053.94;5049835;28;20477;-81
2022/10/07 02:01:54;;;;;;;9.43;5.90;;;7.60;99.90;;;7.57;88.39;99083.34;5024392;28;20921;-81
2022/10/07 02:04:52;;;;;;;6.57;5.90;;;7.50;99.90;;;7.71;87.57;99075.59;5031645;28;20622;-79
2022/10/07 02:07:50;;;;;;;9.73;6.30;;;7.50;99.90;;;7.69;87.97;99083.00;5031619;28;20458;-79
2022/10/07 02:10:50;;;;;;;5.80;4.50;;;7.40;99.90;;;7.64;87.86;99078.94;5032585;28;20524;-81
2022/10/07 02:13:42;;;;;;;11.27;7.50;;;7.40;99.90;;;7.56;87.99;99084.38;5028572;28;20461;-79
2022/10/07 02:16:35;;;;;;;9.87;5.40;;;7.30;99.90;;;7.50;87.89;99060.81;5023912;28;20450;-81
2022/10/07 02:19:24;;;;;;;6.73;4.90;;;7.30;99.90;;;7.57;87.70;99083.34;5034024;28;20594;-80
2022/10/07 02:22:13;;;;;;;7.47;6.00;;;7.30;99.90;;;7.46;87.57;99070.25;5037725;28;20456;-78
2022/10/07 02:25:00;;;;;;;6.23;5.40;;;7.20;99.90;;;7.43;87.79;99078.66;5038176;28;20471;-80
2022/10/07 02:27:51;;;;;;;6.80;5.37;;;7.20;99.90;;;7.41;88.52;99086.06;5028659;28;20550;-81
2022/10/07 02:30:37;;;;;;;5.47;4.73;;;7.10;99.90;;;7.45;88.28;99080.16;5025901;28;20473;-79
2022/10/07 02:33:27;;;;;;;7.63;5.57;;;7.20;99.90;;;7.24;89.12;99072.63;5025919;28;20675;-79
2022/10/07 02:36:21;;;;;;;9.13;5.50;;;7.10;99.90;;;7.29;89.68;99074.81;5032880;28;20546;-79
2022/10/07 02:39:07;;;;;;;9.70;6.40;;;7.00;99.90;;;7.06;89.14;99000.22;5023073;28;20498;-79
2022/10/07 02:42:02;;;;;;;6.20;5.60;;;7.20;99.90;;;7.36;89.07;99065.91;5030472;28;20463;-80
2022/10/07 02:44:52;;;;;;;7.47;5.57;;;7.30;99.90;;;7.45;88.96;99057.81;5027780;28;20458;-80
2022/10/07 02:47:45;;;;;;;10.47;5.60;;;7.30;99.90;;;7.39;89.07;99050.44;5027317;28;20619;-80
2022/10/07 02:50:39;;;;;;;8.60;5.00;;;7.30;99.90;;;7.40;89.22;99060.19;5024077;28;20566;-82
2022/10/07 02:53:29;;;;;;;8.27;5.67;;;7.20;99.90;;;6.91;89.01;98954.38;5029787;28;20463;-82
2022/10/07 02:56:17;;;;;;;5.57;5.07;;;7.30;99.90;;;7.39;88.60;99037.00;5037271;28;20554;-80
2022/10/07 02:59:06;;;;;;;10.93;5.70;;;7.40;99.90;;;7.57;88.18;99028.72;5037339;28;20837;-78
2022/10/07 03:01:56;;;;;;;7.03;5.33;;;7.40;99.90;;;7.70;87.62;99053.22;5028310;28;20452;-78
2022/10/07 03:04:42;;;;;;;10.70;5.63;;;7.50;99.90;;;7.63;88.14;99047.69;5034936;28;20463;-79
2022/10/07 03:07:29;;;;;;;5.23;4.83;;;7.50;99.90;;;7.62;87.99;99043.31;5030107;28;21044;-80
2022/10/07 03:10:16;;;;;;;10.93;5.20;;;7.40;99.90;;;7.53;88.55;99044.38;5031828;28;20446;-80
2022/10/07 03:13:04;;;;;;;6.43;5.03;;;7.40;99.90;;;7.52;88.34;99042.69;5045329;28;20584;-81
2022/10/07 03:15:50;;;;;;;5.70;4.60;;;7.30;99.90;;;7.58;88.04;99047.38;5025223;28;21079;-80
2022/10/07 03:18:36;;;;;;;8.23;5.40;;;7.40;99.90;;;7.46;88.11;99037.97;5025282;28;20486;-79
2022/10/07 03:21:22;;;;;;;9.83;5.70;;;7.40;99.90;;;7.39;88.53;99027.06;5029741;28;20630;-83
2022/10/07 03:24:10;;;;;;;9.10;4.83;;;7.30;99.90;;;7.44;87.85;99040.00;5035406;28;20550;-81
2022/10/07 03:26:56;;;;;;;7.30;5.00;;;7.30;99.90;;;7.32;88.01;99016.13;5039793;28;20503;-80
2022/10/07 03:29:42;;;;;;;6.67;5.23;;;7.40;99.90;;;7.23;87.68;99009.94;5043385;28;20474;-80
2022/10/07 03:32:28;;;;;;;8.30;5.40;;;7.30;99.90;;;7.44;87.43;99030.09;5030975;28;20462;-81
2022/10/07 03:35:14;;;;;;;5.37;4.73;;;7.30;99.90;;;7.26;88.51;99032.97;5018404;28;20532;-80
2022/10/07 03:38:00;;;;;;;5.97;4.80;;;7.20;99.90;;;7.32;87.99;99034.97;5018170;28;20499;-82
2022/10/07 03:40:48;;;;;;;6.93;5.57;;;7.20;99.90;;;7.27;87.56;99018.50;5020632;28;20501;-81
2022/10/07 03:43:34;;;;;;;5.10;4.60;;;7.20;99.90;;;7.24;87.94;99026.91;5019283;28;20452;-83
2022/10/07 03:46:20;;;;;;;5.77;4.53;;;7.20;99.90;;;7.19;88.31;99029.25;5022407;28;20637;-83
2022/10/07 03:49:07;;;;;;;5.07;4.53;;;7.10;99.90;;;7.26;87.87;99029.41;5032968;28;20462;-80
2022/10/07 03:51:53;;;;;;;6.37;4.80;;;7.10;99.90;;;7.06;87.35;99011.81;5036333;28;20550;-81
2022/10/07 03:54:40;;;;;;;5.17;4.67;;;7.10;99.90;;;7.21;87.69;99024.56;5035505;28;20463;-84
2022/10/07 04:00:32;;;;;;;8.03;5.77;;;7.00;99.90;;;6.91;88.84;99019.69;5038755;28;20489;-80
2022/10/07 04:03:18;;;;;;;5.53;4.77;;;6.90;99.90;;;6.94;88.08;99013.16;5028842;28;20458;-83
2022/10/07 04:06:04;;;;;;;5.10;4.67;;;7.00;99.90;;;6.55;88.20;98935.91;5033449;28;20486;-83
2022/10/07 04:08:52;;;;;;;6.80;5.80;;;7.00;99.90;;;7.01;88.13;99022.22;5028724;28;20466;-78
2022/10/07 04:11:40;;;;;;;7.60;5.20;;;6.80;99.90;;;6.95;88.43;99017.50;5028096;28;20894;-81
2022/10/07 04:14:27;;;;;;;8.17;6.10;;;6.80;99.90;;;7.04;87.82;99008.44;5029095;28;20612;-81
2022/10/07 04:17:17;;;;;;;6.10;5.00;;;6.80;99.90;;;6.95;88.03;98996.03;5027477;28;20454;-81
2022/10/07 04:20:04;;;;;;;9.30;5.77;;;6.80;99.90;;;6.95;88.84;98998.72;5025187;28;20528;-80
2022/10/07 04:22:51;;;;;;;5.13;4.63;;;6.90;99.90;;;6.94;88.70;98997.84;5024600;28;21063;-81
2022/10/07 04:25:37;;;;;;;6.37;5.77;;;6.90;99.90;;;6.84;88.71;98985.59;5022775;28;20476;-80
2022/10/07 04:28:25;;;;;;;6.17;4.93;;;6.80;99.90;;;6.92;88.56;98993.69;5019408;28;20981;-81
2022/10/07 04:31:13;;;;;;;9.57;4.90;;;6.90;99.90;;;7.00;88.68;98985.59;5019726;28;20466;-80
2022/10/07 04:33:58;;;;;;;7.73;5.47;;;7.00;99.90;;;6.86;88.16;98959.41;5024677;28;20456;-80
2022/10/07 04:36:44;;;;;;;6.03;5.43;;;7.00;99.90;;;6.82;88.01;98941.94;5045387;28;20466;-81
2022/10/07 04:39:30;;;;;;;7.30;4.20;;;7.10;99.90;;;7.14;87.88;98980.56;5035621;28;20481;-80
2022/10/07 04:45:17;;;;;;;8.10;4.80;;;7.20;99.90;;;7.23;87.89;98974.16;5017256;28;20469;-81
2022/10/07 04:48:05;;;;;;;9.20;5.60;;;7.30;99.90;;;7.36;87.38;98973.63;5030443;28;20461;-80
2022/10/07 04:50:51;;;;;;;6.27;4.73;;;7.30;99.90;;;7.39;86.98;98956.34;5025120;28;20453;-76
2022/10/07 04:53:38;;;;;;;9.30;5.23;;;7.40;99.90;;;7.53;86.96;98962.84;5023223;28;20445;-81
2022/10/07 04:56:27;;;;;;;7.20;5.77;;;7.50;99.90;;;7.78;86.06;98963.59;5018000;28;20457;-79
2022/10/07 04:59:12;;;;;;;7.20;5.00;;;7.60;99.90;;;7.80;84.72;98969.63;5027502;28;20469;-79
2022/10/07 05:01:58;;;;;;;5.10;4.63;;;7.70;99.80;;;7.73;84.97;98956.03;5028714;28;20453;-78
2022/10/07 05:04:45;;;;;;;5.57;4.73;;;7.70;98.50;;;7.74;84.21;98906.63;5033226;28;20437;-73
2022/10/07 05:07:31;;;;;;;6.10;4.50;;;7.80;98.40;;;7.89;84.02;98952.44;5012940;28;20459;-74
2022/10/07 05:10:17;;;;;;;5.93;4.23;;;7.80;96.70;;;7.92;84.05;98957.47;5021077;28;20451;-77
2022/10/07 05:13:04;;;;;;;5.47;4.00;;;7.80;97.20;;;7.35;84.43;98902.91;5018372;28;20594;-76
2022/10/07 05:15:52;;;;;;;5.77;4.23;;;7.80;95.80;;;7.81;84.13;98955.19;5018786;28;20494;-75
2022/10/07 05:18:38;;;;;;;11.20;4.80;;;7.80;96.00;;;7.83;83.30;98963.91;5021725;28;21217;-76
2022/10/07 05:21:25;;;;;;;6.63;4.37;;;7.80;95.30;;;7.67;83.46;98948.66;5023106;28;20586;-75
2022/10/07 05:24:11;;;;;;;6.20;5.10;;;7.70;95.00;;;7.59;84.09;98946.03;5019936;28;20458;-77
2022/10/07 05:26:57;;;;;;;5.53;5.00;;;7.70;95.40;;;7.63;83.43;98945.47;5019336;28;20862;-77
2022/10/07 05:29:43;;;;;;;6.90;5.30;;;7.70;95.00;;;7.43;84.08;98909.25;5017482;28;20461;-83
2022/10/07 05:32:28;;;;;;;6.17;4.83;;;7.70;95.40;;;7.90;83.96;98934.47;5024351;28;20455;-82
2022/10/07 05:35:14;;;;;;;6.33;5.20;;;7.80;96.50;;;8.16;82.95;98933.28;5013162;28;20608;-76
2022/10/07 05:38:02;;;;;;;8.47;5.07;;;7.90;96.80;;;8.30;81.79;98932.53;5020167;28;20465;-72
2022/10/07 05:40:58;;;;;;;11.03;5.03;;;8.00;95.80;;;8.34;83.07;98935.72;5020295;28;20456;-75
2022/10/07 05:43:46;;;;;;;12.40;5.30;;;8.10;96.10;;;8.46;82.05;98931.59;5019234;28;20466;-77
2022/10/07 05:46:32;;;;;;;14.13;5.50;;;8.20;96.50;;;8.43;81.94;98921.19;5021991;28;21008;-77
2022/10/07 05:49:17;;;;;;;6.50;4.77;;;8.30;94.20;;;8.62;81.58;98925.25;5019605;28;20458;-76
2022/10/07 05:52:03;;;;;;;12.77;5.83;;;8.40;94.00;;;8.75;80.54;98916.59;5018166;28;20526;-77
2022/10/07 05:54:51;;;;;;;6.73;4.40;;;8.60;93.70;;;8.74;80.66;98923.00;5023230;28;20963;-77
2022/10/07 05:57:38;;;;;;;17.60;6.00;;;8.60;92.90;;;8.78;81.08;98924.31;5023099;28;20454;-76
2022/10/07 06:00:24;;;;;;;11.03;5.33;;;8.70;93.60;;;9.00;79.88;98919.03;5035697;28;20518;-75
2022/10/07 06:03:10;;;;;;;5.97;4.77;;;8.80;92.60;;;8.94;79.19;98917.09;5047634;28;20844;-77
2022/10/07 06:05:58;;;;;;;9.20;4.57;;;8.90;91.70;;;8.89;79.12;98923.03;5045323;28;20508;-76
2022/10/07 06:08:44;;;;;;;5.07;4.30;;;8.90;91.30;;;8.84;79.11;98917.34;5028523;28;20450;-76
2022/10/07 06:14:30;;;;;;;5.90;4.83;;;8.90;91.50;;;9.23;77.51;98922.69;5001494;28;21167;-76
2022/10/07 06:17:16;;;;;;;9.10;5.63;;;9.00;90.70;;;9.27;77.49;98899.75;5026258;28;20507;-77
2022/10/07 06:20:03;;;;;;;4.90;4.43;;;9.10;90.70;;;9.37;77.04;98915.66;5022694;28;20492;-77
2022/10/07 06:22:48;;;;;;;6.50;4.13;;;9.10;90.30;;;9.63;76.79;98915.19;5024104;28;20483;-78
2022/10/07 06:25:35;;;;;;;5.20;4.63;;;9.30;90.30;;;9.62;76.05;98914.34;5021111;28;20454;-77
2022/10/07 06:28:23;;;;;;;6.30;4.50;;;9.40;89.30;;;9.47;76.31;98910.81;5023769;28;20503;-77
2022/10/07 06:31:12;;;;;;;8.13;4.93;;;9.50;88.90;;;9.33;77.00;98904.41;5028351;28;20457;-77
2022/10/07 06:33:58;;;;;;;5.30;4.80;;;9.50;88.40;;;9.40;76.59;98920.69;5018767;28;20482;-77
2022/10/07 06:36:44;;;;;;;6.07;4.90;;;9.40;88.50;;;9.54;76.13;98917.16;5026995;28;20819;-78
2022/10/07 06:39:29;;;;;;;7.87;4.83;;;9.50;88.60;;;9.61;75.66;98917.25;5016339;28;20528;-77
2022/10/07 06:42:16;;;;;;;11.00;5.37;;;9.50;88.00;;;9.66;75.62;98913.97;5041083;28;20815;-77
2022/10/07 06:45:03;;;;;;;10.13;4.20;;;9.50;88.30;;;9.63;75.87;98916.03;5029789;28;20461;-77
2022/10/07 06:47:49;;;;;;;5.00;3.60;;;9.60;87.70;;;9.86;75.39;98912.38;5020877;28;20464;-77
2022/10/07 06:50:35;;;;;;;8.70;3.93;;;9.70;87.60;;;9.95;74.27;98906.88;5023684;28;20509;-77
2022/10/07 06:53:22;;;;;;;5.10;4.10;;;9.80;86.70;;;10.00;73.44;98904.44;5017227;28;20516;-77
2022/10/07 06:56:08;;;;;;;5.03;3.80;;;9.80;86.30;;;10.03;73.40;98909.44;5019489;28;20600;-78
2022/10/07 06:58:54;;;;;;;5.03;4.20;;;9.80;86.20;;;10.27;72.78;98912.81;5023364;28;20643;-76
2022/10/07 07:01:41;;;;;;;4.37;3.97;;;10.00;85.30;;;9.96;74.08;98908.53;5019072;28;20590;-77
2022/10/07 07:04:27;;;;;;;5.40;4.10;;;9.90;86.10;;;10.12;74.24;98907.47;5031413;28;20452;-76
2022/10/07 07:07:12;;;;;;;4.70;3.50;;;9.90;86.60;;;10.65;72.37;98900.97;5037713;28;20479;-77
2022/10/07 07:09:58;;;;;;;6.27;3.67;;;10.20;85.50;;;10.56;71.67;98892.16;5031828;28;20467;-77
2022/10/07 07:12:44;;;;;;;6.30;3.83;;;10.30;84.50;;;10.17;73.22;98908.56;5020804;28;20475;-74
2022/10/07 07:15:30;;;;;;;4.90;4.13;;;10.30;84.10;;;10.25;73.29;98902.19;5020315;28;20502;-73
2022/10/07 07:18:17;;;;;;;6.50;4.60;;;10.20;84.20;;;10.66;71.42;98908.03;5046051;28;20438;-75
2022/10/07 07:21:06;;;;;;;8.00;4.27;;;10.30;84.10;;;10.47;72.15;98911.19;5048169;28;20454;-74
2022/10/07 07:23:52;;;;;;;5.80;4.20;;;10.30;83.90;;;10.32;73.46;98907.69;5046776;28;20439;-75
2022/10/07 07:26:39;;;;;;;5.20;4.30;;;10.30;84.00;;;10.00;74.46;98910.66;5024518;28;20628;-75
2022/10/07 07:29:25;;;;;;;6.60;4.80;;;10.10;84.00;;;10.51;72.21;98911.66;5020477;28;20463;-76
2022/10/07 07:32:11;;;;;;;6.83;4.90;;;10.30;84.40;;;10.23;71.64;98852.09;5025454;28;20587;-73
2022/10/07 07:34:59;;;;;;;6.27;4.77;;;10.40;83.80;;;10.56;71.77;98889.44;5038477;28;21031;-74
2022/10/07 07:37:46;;;;;;;13.40;5.60;;;10.50;84.20;;;10.58;72.54;98909.00;5025329;28;20520;-74
2022/10/07 07:40:31;;;;;;;7.73;4.83;;;10.40;83.70;;;11.02;71.05;98918.75;5026342;28;20956;-76
2022/10/07 07:43:17;;;;;;;8.83;5.07;;;10.60;83.80;;;10.67;71.66;98910.53;5025760;28;20437;-74
2022/10/07 07:46:03;;;;;;;7.13;4.20;;;10.60;83.40;;;10.89;72.27;98913.22;5031641;28;20964;-74
2022/10/07 07:48:50;;;;;;;8.40;5.13;;;10.60;84.10;;;10.99;71.25;98897.47;5039704;28;20454;-74
2022/10/07 07:51:41;;;;;;;6.43;5.37;;;10.70;84.00;;;10.82;71.22;98890.69;5047533;28;20446;-76
2022/10/07 07:54:27;;;;;;;9.87;4.83;;;10.80;83.50;;;10.84;70.66;98845.38;5047493;28;20441;-75
2022/10/07 07:57:13;;;;;;;12.67;5.20;;;10.90;83.30;;;10.99;70.40;98900.19;5046004;28;20824;-73
2022/10/07 07:59:59;;;;;;;6.33;4.53;;;11.00;83.00;;;11.00;71.19;98893.78;5039831;28;20506;-74
2022/10/07 08:02:45;;;;;;;7.90;5.67;;;10.80;83.50;;;11.06;71.27;98881.31;5021485;28;20462;-74
2022/10/07 08:05:35;;;;;;;6.30;4.97;;;11.00;83.60;;;11.15;70.43;98898.25;5026830;28;20543;-76
2022/10/07 08:08:22;;;;;;;7.83;4.60;;;11.00;83.10;;;11.48;69.32;98884.88;5005933;28;20855;-74
2022/10/07 08:11:09;;;;;;;7.83;4.50;;;11.20;82.90;;;11.65;69.90;98889.16;5037894;28;20466;-78
2022/10/07 08:13:56;;;;;;;6.33;4.50;;;11.30;83.20;;;11.53;68.85;98872.66;5025766;28;20456;-77
2022/10/07 08:16:43;;;;;;;8.63;4.30;;;11.40;82.40;;;11.70;68.90;98882.09;5040037;28;20447;-73
2022/10/07 08:19:30;;;;;;;8.53;5.43;;;11.50;82.40;;;11.39;69.12;98886.09;5045500;28;20575;-77
2022/10/07 08:22:16;;;;;;;4.57;4.17;;;11.50;82.00;;;11.62;68.37;98874.13;5030688;28;20788;-77
2022/10/07 08:25:04;;;;;;;5.20;4.70;;;11.40;82.00;;;11.70;68.54;98882.09;5034779;28;20540;-77
2022/10/07 08:27:50;;;;;;;7.43;4.40;;;11.50;82.00;;;12.22;67.05;98878.13;5038077;28;20974;-76
2022/10/07 08:30:36;;;;;;;7.50;4.13;;;11.70;81.90;;;12.15;66.82;98878.94;5022048;28;20496;-77
2022/10/07 08:33:23;;;;;;;14.13;4.33;;;11.90;81.30;;;12.56;66.01;98884.44;5016709;28;20451;-75
2022/10/07 08:36:12;;;;;;;6.60;4.93;;;12.10;81.40;;;12.62;66.60;98889.00;5014868;28;20465;-79
2022/10/07 08:38:59;;;;;;;6.30;4.77;;;12.20;81.40;;;12.31;65.75;98849.78;5026470;28;21233;-75
2022/10/07 08:42:02;;;;;;;6.87;4.87;;;12.30;80.30;;;12.75;65.29;98874.66;5021843;28;20812;-77
2022/10/07 08:44:50;;;;;;;7.40;5.00;;;12.40;80.50;;;12.64;65.18;98867.94;5020507;28;20999;-75
2022/10/07 08:47:42;;;;;;;9.60;5.80;;;12.60;80.00;;;12.56;65.71;98870.88;5024705;28;20849;-75
2022/10/07 08:50:39;;;;;;;8.13;5.27;;;12.50;80.00;;;12.57;65.82;98880.69;5028577;28;20484;-73
2022/10/07 08:53:31;;;;;;;9.27;6.00;;;12.50;80.10;;;12.56;66.41;98885.25;5024767;28;20522;-75
2022/10/07 08:56:20;;;;;;;6.50;5.10;;;12.50;80.30;;;12.78;65.65;98878.78;5022688;28;20527;-76
2022/10/07 08:59:20;;;;;;;8.70;5.83;;;12.50;80.50;;;13.10;64.17;98871.69;5032556;28;20476;-74
2022/10/07 09:02:26;;;;;;;11.25;6.75;;;12.70;80.20;;;13.60;63.33;98863.03;5016279;28;20463;-76
2022/10/07 09:05:22;;;;;;;12.43;7.47;;;13.00;79.80;;;13.65;63.31;98869.69;5023040;28;20443;-74
2022/10/07 09:08:16;;;;;;;12.90;6.13;;;13.10;79.70;;;13.72;62.33;98860.47;5020897;28;20842;-76
2022/10/07 09:11:15;;;;;;;11.37;6.60;;;13.30;79.10;;;13.73;62.42;98845.84;5019267;28;20468;-80
2022/10/07 09:14:12;;;;;;;8.63;6.40;;;13.40;79.10;;;13.59;63.19;98852.38;5036300;28;20947;-78
2022/10/07 09:17:04;;;;;;;12.47;6.67;;;13.40;78.70;;;13.94;62.76;98851.19;5024454;28;20461;-80
2022/10/07 09:19:55;;;;;;;8.23;6.70;;;13.40;79.00;;;14.20;61.35;98855.63;5025741;28;20480;-80
2022/10/07 09:22:42;;;;;;;15.60;7.30;;;13.60;78.70;;;14.58;60.00;98851.19;5021557;28;20462;-75
2022/10/07 09:25:31;;;;;;;10.53;6.97;;;14.00;78.20;;;13.60;62.94;98841.31;5020689;28;20452;-73
2022/10/07 09:28:21;;;;;;;15.27;7.17;;;13.60;77.90;;;13.93;62.70;98841.38;5020770;28;21109;-76
2022/10/07 09:31:12;;;;;;;11.70;6.53;;;13.60;78.80;;;14.07;62.44;98834.81;5026861;28;20599;-78
2022/10/07 09:33:59;;;;;;;11.00;6.60;;;13.70;78.40;;;14.27;61.57;98833.84;5018479;28;20462;-75
2022/10/07 09:37:12;;;;;;;9.80;6.97;;;14.00;78.40;;;14.77;60.64;98832.22;5024948;28;20461;-73
2022/10/07 09:40:23;;;;;;;12.30;6.20;;;14.30;78.00;;;14.85;60.14;98827.31;5020239;28;20543;-74
2022/10/07 09:43:12;;;;;;;7.73;6.60;;;14.40;77.70;;;14.63;59.38;98832.31;5023971;28;21009;-75
2022/10/07 09:46:00;;;;;;;8.80;5.97;;;14.50;76.30;;;15.00;59.45;98824.28;5024658;28;20459;-74
2022/10/07 09:48:52;;;;;;;11.93;6.67;;;14.50;76.90;;;15.15;59.11;98812.19;5021907;28;20519;-78
2022/10/07 09:51:38;;;;;;;10.90;5.97;;;14.70;76.90;;;16.08;56.95;98814.81;5025194;28;20462;-74
2022/10/07 09:54:26;;;;;;;8.27;5.90;;;15.20;76.40;;;15.53;57.07;98753.09;5027748;28;20481;-76
2022/10/07 09:57:27;;;;;;;9.67;6.20;;;15.40;75.80;;;14.75;59.52;98807.97;5032548;28;20445;-74
2022/10/07 10:00:25;;;;;;;9.40;5.50;;;15.10;75.50;;;15.20;58.88;98803.34;5015178;28;20838;-76
2022/10/07 10:03:12;;;;;;;13.40;6.00;;;15.10;76.00;;;15.16;59.67;98808.41;5020775;28;20458;-75
2022/10/07 10:06:02;;;;;;;9.70;5.70;;;15.00;76.10;;;14.87;60.01;98810.78;5029828;28;20545;-74
2022/10/07 10:08:56;;;;;;;11.20;6.60;;;14.90;75.80;;;14.56;61.43;98812.50;5022331;28;21226;-73
2022/10/07 10:11:42;;;;;;;11.40;5.40;;;14.70;76.60;;;15.08;60.37;98804.09;5029613;28;20454;-75
2022/10/07 10:14:37;;;;;;;7.83;6.10;;;14.70;77.00;;;14.98;59.52;98777.41;5030027;28;20449;-74
2022/10/07 10:17:33;;;;;;;6.90;5.20;;;14.90;76.60;;;15.30;59.73;98799.03;5005093;28;20454;-74
2022/10/07 10:20:30;;;;;;;9.57;5.67;;;15.10;76.70;;;15.36;59.83;98791.84;5027012;28;20485;-75
2022/10/07 10:23:30;;;;;;;9.90;5.50;;;15.30;76.60;;;15.61;58.98;98781.91;5013334;28;20476;-74
2022/10/07 10:26:41;;;;;;;5.90;5.17;;;15.50;76.30;;;15.86;58.66;98766.28;5025525;28;20990;-77
2022/10/07 10:29:46;;;;;;;8.47;5.70;;;15.60;76.20;;;15.56;59.47;98742.59;5015840;28;20451;-74
2022/10/07 10:33:03;;;;;;;10.20;5.60;;;15.60;76.30;;;15.76;58.94;98774.16;5048660;28;20444;-78
2022/10/07 10:35:58;;;;;;;10.20;6.25;;;15.80;75.80;;;15.72;59.41;98789.31;5022769;28;21061;-77
2022/10/07 10:38:51;;;;;;;7.87;5.37;;;15.70;75.80;;;16.91;55.93;98764.16;5023833;28;20222;-73
2022/10/07 10:41:47;;;;;;;9.13;5.17;;;16.30;75.60;;;17.21;55.35;98780.44;5028361;28;20577;-74
2022/10/07 10:44:51;;;;;;;5.33;4.70;;;16.50;75.20;;;17.35;55.09;98775.53;5030777;28;20482;-75
2022/10/07 10:47:59;;;;;;;7.33;5.63;;;16.70;74.60;;;17.03;55.77;98758.72;5017625;28;20598;-74
2022/10/07 10:50:53;;;;;;;9.70;6.20;;;16.70;74.20;;;17.38;55.54;98766.03;5028411;28;20466;-77
2022/10/07 10:53:55;;;;;;;8.97;5.40;;;16.80;74.80;;;17.64;54.90;98755.56;5023504;28;20459;-79
2022/10/07 10:56:50;;;;;;;6.67;5.03;;;16.90;74.50;;;17.16;55.83;98765.84;5035435;28;20818;-76
2022/10/07 11:00:00;;;;;;;5.97;4.23;;;17.10;74.10;;;16.90;56.25;98727.03;5025628;28;20605;-77
2022/10/07 11:03:25;;;;;;;6.97;5.13;;;17.00;74.20;;;16.84;56.96;98756.09;5021405;28;20455;-80
2022/10/07 11:06:16;;;;;;;12.03;5.70;;;17.00;74.10;;;16.69;56.92;98719.22;5023750;28;20460;-76
2022/10/07 11:09:05;;;;;;;5.47;4.77;;;16.80;74.00;;;16.78;57.17;98748.88;5018536;28;20676;-74
2022/10/07 11:11:51;;;;;;;7.30;4.67;;;16.80;74.10;;;16.67;56.78;98707.72;5027335;28;20783;-75
2022/10/07 11:14:45;;;;;;;6.60;5.13;;;16.70;74.10;;;17.24;55.63;98728.06;5024742;28;20450;-74
2022/10/07 11:17:34;;;;;;;5.30;4.80;;;16.90;74.10;;;17.09;56.30;98735.94;5026903;28;20471;-74
2022/10/07 11:20:24;;;;;;;6.73;4.93;;;16.80;74.10;;;18.11;54.27;98725.28;5023249;28;20832;-77
2022/10/07 11:23:21;;;;;;;6.27;4.60;;;17.40;74.10;;;18.74;52.14;98720.78;5026846;28;20459;-74
2022/10/07 11:26:18;;;;;;;6.30;4.50;;;17.90;73.20;;;18.87;52.18;98722.34;5028244;28;20448;-73
2022/10/07 11:29:16;;;;;;;6.20;4.57;;;18.10;72.70;;;18.10;53.69;98722.81;5027671;28;20454;-74
2022/10/07 11:32:08;;;;;;;9.70;5.50;;;18.00;72.10;;;17.70;53.62;98632.47;5019555;28;20537;-79
2022/10/07 11:35:00;;;;;;;10.23;5.37;;;17.60;72.60;;;18.08;54.01;98720.31;5021955;28;20806;-74
2022/10/07 11:37:59;;;;;;;8.17;5.30;;;17.70;72.60;;;18.22;53.84;98692.66;5026369;28;20460;-79
2022/10/07 11:40:50;;;;;;;6.90;4.30;;;17.90;72.60;;;18.27;54.37;98700.94;5025031;28;20483;-76
2022/10/07 11:43:45;;;;;;;4.80;4.30;;;17.90;73.20;;;17.89;54.54;98672.41;5031445;28;20464;-74
2022/10/07 11:46:35;;;;;;;6.30;5.57;;;17.80;72.90;;;18.54;53.30;98706.56;5022765;28;20776;-74
2022/10/07 11:49:25;;;;;;;13.93;5.80;;;18.00;72.50;;;18.73;52.94;98698.06;5026103;28;20533;-73
2022/10/07 11:52:23;;;;;;;8.40;5.37;;;18.30;72.30;;;17.74;55.07;98682.00;5019837;28;20988;-73
2022/10/07 11:55:19;;;;;;;5.70;4.90;;;17.90;72.20;;;18.05;54.71;98689.94;5020930;28;20505;-74
2022/10/07 11:58:05;;;;;;;5.43;4.90;;;17.60;72.80;;;18.20;53.87;98643.69;5027109;28;20509;-74
2022/10/07 12:01:54;;;;;;;8.10;4.90;;;17.90;72.70;;;18.88;52.17;98671.97;5016037;28;20535;-78
2022/10/07 12:04:40;;;;;;;6.10;5.27;;;18.10;72.00;;;18.60;53.17;98647.28;4963394;28;20505;-76
2022/10/07 12:07:57;;;;;;;6.00;5.40;;;18.20;72.10;;;18.54;53.02;98640.91;4957709;28;20464;-81
2022/10/07 12:10:43;;;;;;;5.90;5.27;;;18.20;71.80;;;18.82;52.57;98647.28;5024958;28;20462;-77
2022/10/07 12:13:41;;;;;;;9.47;4.80;;;18.30;71.80;;;17.94;54.62;98648.72;5020494;28;20803;-74